Brookside, New Jersey
Current Conditions -  °F | °C
As of 11:35 PM on Saturday 25 Oct 2014 (Local Time) from KMMU Reporting Station
Overcast Overcast  
Wind Chill: 63°   Ceiling: 10000
Heat Index: 63°   Visibility: 10mi
Dew Point: 45°   Wind: 6mph
Humidity: 52%   Direction: 230°SW
Pressure: 29.58"   Gusts: NA
Location:  40.79°N, 74.57°W
Report Text: KMMU 260335Z AUTO 23005KT 10SM SCT060 SCT075 OVC100 17/07 A2958 RMK AO2
Loading
Personal Weather Stations






























Interactive Weather Map
Tropical Storm Tracking
New forecast layout! Learn more

10-Day Weather Forecast

Advertisements
Track Severe Weather on mobile